createdAt,value
2022-12-18T00:01:39.219Z,102560.16
2022-12-18T00:04:08.995Z,102564.44
2022-12-18T00:06:36.258Z,102564.16
2022-12-18T00:09:03.749Z,102570.81
2022-12-18T00:11:31.560Z,102562.13
2022-12-18T00:14:00.233Z,102560.41
2022-12-18T00:16:28.394Z,102553.53
2022-12-18T00:18:57.689Z,102555.41
2022-12-18T00:21:24.158Z,102545.28
2022-12-18T00:23:51.589Z,102552.81
2022-12-18T00:26:22.663Z,102544.78
2022-12-18T00:28:49.678Z,102548.97
2022-12-18T00:31:19.836Z,102555.13
2022-12-18T00:33:46.774Z,102551.00
2022-12-18T00:36:21.268Z,102560.94
2022-12-18T00:38:48.449Z,102569.00
2022-12-18T00:41:39.445Z,102560.34
2022-12-18T00:44:07.572Z,102542.19
2022-12-18T00:46:34.106Z,102529.72
2022-12-18T00:49:00.678Z,102535.91
2022-12-18T00:51:27.695Z,102534.53
2022-12-18T00:53:54.255Z,102540.38
2022-12-18T00:56:24.905Z,102531.53
2022-12-18T00:58:51.452Z,102537.47
2022-12-18T01:01:18.445Z,102530.34
2022-12-18T01:03:46.218Z,102537.75
2022-12-18T01:06:13.652Z,102545.59
2022-12-18T01:08:40.293Z,102544.34
2022-12-18T01:11:12.754Z,102548.56
2022-12-18T01:13:40.468Z,102532.88
2022-12-18T01:16:07.753Z,102538.16
2022-12-18T01:18:34.183Z,102533.06
2022-12-18T01:21:00.590Z,102532.66
2022-12-18T01:23:28.193Z,102543.03
2022-12-18T01:25:54.695Z,102536.69
2022-12-18T01:28:21.117Z,102548.31
2022-12-18T01:30:47.556Z,102552.84
2022-12-18T01:33:13.964Z,102555.34
2022-12-18T01:35:43.882Z,102558.31
2022-12-18T01:38:10.760Z,102556.47
2022-12-18T01:40:37.869Z,102558.34
2022-12-18T01:43:04.494Z,102557.84
2022-12-18T01:45:32.919Z,102559.41
2022-12-18T01:48:04.455Z,102551.63
2022-12-18T01:50:38.316Z,102559.00
2022-12-18T01:53:11.591Z,102549.59
2022-12-18T01:55:53.379Z,102561.53
2022-12-18T01:58:23.040Z,102562.38
2022-12-18T02:00:49.537Z,102556.13
2022-12-18T02:03:16.216Z,102555.13
2022-12-18T02:06:05.047Z,102560.63
2022-12-18T02:08:42.117Z,102556.47
2022-12-18T02:11:17.140Z,102569.81
2022-12-18T02:13:47.545Z,102566.13
2022-12-18T02:16:24.547Z,102563.56
2022-12-18T02:18:59.065Z,102560.97
2022-12-18T02:21:43.334Z,102557.28
2022-12-18T02:24:25.249Z,102561.56
2022-12-18T02:26:57.758Z,102561.78
2022-12-18T02:29:30.342Z,102554.75
2022-12-18T02:32:00.351Z,102557.56
2022-12-18T02:34:33.563Z,102560.72
2022-12-18T02:37:03.675Z,102564.19
2022-12-18T02:39:31.820Z,102565.75
2022-12-18T02:41:59.713Z,102553.03
2022-12-18T02:44:26.326Z,102557.19
2022-12-18T02:46:54.351Z,102552.66
2022-12-18T02:49:44.906Z,102561.47
2022-12-18T02:52:22.455Z,102556.31
2022-12-18T02:54:56.124Z,102541.19
2022-12-18T02:57:40.889Z,102533.03
2022-12-18T03:00:12.951Z,102542.69
2022-12-18T03:02:48.527Z,102543.88
2022-12-18T03:05:23.630Z,102548.28
2022-12-18T03:07:58.957Z,102547.63
2022-12-18T03:10:30.423Z,102529.91
2022-12-18T03:13:07.141Z,102531.84
2022-12-18T03:16:06.060Z,102518.47
2022-12-18T03:18:50.528Z,102516.59
2022-12-18T03:21:21.840Z,102516.56
2022-12-18T03:23:51.776Z,102524.41
2022-12-18T03:26:27.962Z,102521.00
2022-12-18T03:29:03.203Z,102519.16
2022-12-18T03:31:32.864Z,102518.34
2022-12-18T03:34:04.957Z,102492.75
2022-12-18T03:36:31.608Z,102493.34
2022-12-18T03:38:58.064Z,102503.91
2022-12-18T03:41:32.499Z,102494.88
2022-12-18T03:44:11.228Z,102487.88
2022-12-18T03:46:41.950Z,102483.34
2022-12-18T03:49:26.162Z,102487.00
2022-12-18T03:52:04.194Z,102491.25
2022-12-18T03:54:32.589Z,102486.81
2022-12-18T03:57:12.939Z,102491.78
2022-12-18T03:59:41.298Z,102483.78
2022-12-18T04:02:09.498Z,102484.22
2022-12-18T04:04:39.450Z,102483.13
2022-12-18T04:07:07.651Z,102476.06
2022-12-18T04:09:36.994Z,102480.50
2022-12-18T04:12:03.707Z,102473.38
2022-12-18T04:14:30.114Z,102466.19
2022-12-18T04:16:56.539Z,102471.88
2022-12-18T04:19:22.916Z,102470.88
2022-12-18T04:21:49.376Z,102467.72
2022-12-18T04:24:15.847Z,102460.22
2022-12-18T04:26:42.280Z,102460.34
2022-12-18T04:29:08.760Z,102462.84
2022-12-18T04:31:35.297Z,102463.63
2022-12-18T04:34:01.923Z,102472.06
2022-12-18T04:36:28.548Z,102471.66
2022-12-18T04:38:54.969Z,102472.84
2022-12-18T04:41:21.664Z,102471.56
2022-12-18T04:43:48.159Z,102461.81
2022-12-18T04:46:14.660Z,102469.13
2022-12-18T04:48:41.509Z,102479.56
2022-12-18T04:51:08.428Z,102483.91
2022-12-18T04:53:35.230Z,102493.78
2022-12-18T04:56:11.795Z,102489.34
2022-12-18T04:58:40.071Z,102488.41
2022-12-18T05:01:08.435Z,102485.97
2022-12-18T05:03:36.257Z,102492.03
2022-12-18T05:06:03.698Z,102491.44
2022-12-18T05:08:30.162Z,102500.84
2022-12-18T05:11:08.359Z,102495.81
2022-12-18T05:13:36.359Z,102510.53
2022-12-18T05:16:04.125Z,102510.53
2022-12-18T05:18:31.118Z,102513.13
2022-12-18T05:20:58.321Z,102515.69
2022-12-18T05:23:26.279Z,102518.34
2022-12-18T05:26:00.748Z,102532.63
2022-12-18T05:28:30.058Z,102530.00
2022-12-18T05:30:59.172Z,102529.16
2022-12-18T05:33:27.797Z,102533.78
2022-12-18T05:35:59.874Z,102542.78
2022-12-18T05:38:28.181Z,102538.53
2022-12-18T05:40:54.615Z,102541.91
2022-12-18T05:43:22.788Z,102533.78
2022-12-18T05:45:50.040Z,102526.22
2022-12-18T05:48:17.227Z,102518.13
2022-12-18T05:50:49.126Z,102516.28
2022-12-18T05:53:18.368Z,102515.69
2022-12-18T05:55:45.501Z,102501.75
2022-12-18T05:58:13.653Z,102493.34
2022-12-18T06:00:42.548Z,102496.13
2022-12-18T06:03:10.803Z,102496.03
2022-12-18T06:05:39.098Z,102490.72
2022-12-18T06:08:05.951Z,102489.94
2022-12-18T06:10:32.576Z,102477.66
2022-12-18T06:12:59.221Z,102481.13
2022-12-18T06:15:25.722Z,102473.19
2022-12-18T06:17:52.262Z,102474.19
2022-12-18T06:20:18.934Z,102476.00
2022-12-18T06:22:45.590Z,102479.38
2022-12-18T06:25:12.339Z,102479.38
2022-12-18T06:27:38.847Z,102465.22
2022-12-18T06:30:07.671Z,102464.34
2022-12-18T06:32:34.166Z,102465.22
2022-12-18T06:35:00.623Z,102458.19
2022-12-18T06:37:27.187Z,102457.06
2022-12-18T06:39:54.797Z,102460.59
2022-12-18T06:42:21.221Z,102462.28
2022-12-18T06:44:47.747Z,102464.00
2022-12-18T06:47:14.200Z,102456.19
2022-12-18T06:49:40.652Z,102446.47
2022-12-18T06:52:07.360Z,102443.66
2022-12-18T06:54:33.757Z,102446.22
2022-12-18T06:57:00.137Z,102436.53
2022-12-18T06:59:26.580Z,102433.13
2022-12-18T07:01:54.695Z,102434.22
2022-12-18T07:04:21.263Z,102425.22
2022-12-18T07:06:47.754Z,102422.44
2022-12-18T07:09:14.167Z,102424.00
2022-12-18T07:11:40.607Z,102435.50
2022-12-18T07:14:07.020Z,102425.94
2022-12-18T07:16:33.451Z,102431.97
2022-12-18T07:18:59.876Z,102428.66
2022-12-18T07:21:26.461Z,102416.09
2022-12-18T07:23:53.331Z,102413.38
2022-12-18T07:26:21.731Z,102409.13
2022-12-18T07:28:48.540Z,102409.06
2022-12-18T07:31:18.271Z,102397.13
2022-12-18T07:33:45.466Z,102404.94
2022-12-18T07:36:12.669Z,102398.81
2022-12-18T07:38:39.109Z,102397.88
2022-12-18T07:41:08.013Z,102390.66
2022-12-18T07:43:35.521Z,102387.00
2022-12-18T07:46:02.563Z,102381.03
2022-12-18T07:48:30.181Z,102370.22
2022-12-18T07:51:05.079Z,102361.28
2022-12-18T07:53:32.771Z,102365.72
2022-12-18T07:56:26.043Z,102363.84
2022-12-18T07:58:47.384Z,102363.59
2022-12-18T08:01:14.904Z,102360.97
2022-12-18T08:03:42.359Z,102363.63
2022-12-18T08:06:10.549Z,102361.50
2022-12-18T08:08:38.028Z,102363.97
2022-12-18T08:11:04.563Z,102356.03
2022-12-18T08:13:30.935Z,102349.63
2022-12-18T08:16:05.359Z,102346.84
2022-12-18T08:18:33.416Z,102347.50
2022-12-18T08:21:12.177Z,102346.53
2022-12-18T08:23:42.564Z,102347.19
2022-12-18T08:26:11.106Z,102339.22
2022-12-18T08:28:37.557Z,102343.75
2022-12-18T08:31:04.876Z,102360.41
2022-12-18T08:33:31.503Z,102367.22
2022-12-18T08:35:59.808Z,102375.97
2022-12-18T08:38:26.355Z,102371.19
2022-12-18T08:41:10.930Z,102356.56
2022-12-18T08:43:56.050Z,102356.22
2022-12-18T08:46:24.962Z,102363.13
2022-12-18T08:48:52.159Z,102365.97
2022-12-18T08:51:19.353Z,102357.19
2022-12-18T08:53:46.609Z,102358.66
2022-12-18T08:56:13.899Z,102353.78
2022-12-18T08:58:41.391Z,102358.69
2022-12-18T09:01:10.392Z,102357.16
2022-12-18T09:03:37.210Z,102364.38
2022-12-18T09:06:04.064Z,102353.78
2022-12-18T09:08:30.969Z,102350.19
2022-12-18T09:10:57.533Z,102355.91
2022-12-18T09:13:24.240Z,102361.56
2022-12-18T09:15:55.292Z,102360.63
2022-12-18T09:18:23.460Z,102370.41
2022-12-18T09:20:52.712Z,102370.88
2022-12-18T09:23:19.232Z,102370.75
2022-12-18T09:25:45.823Z,102373.53
2022-12-18T09:28:18.228Z,102371.19
2022-12-18T09:30:48.782Z,102359.50
2022-12-18T09:33:16.280Z,102354.66
2022-12-18T09:35:44.315Z,102352.78
2022-12-18T09:38:17.110Z,102355.47
2022-12-18T09:40:58.729Z,102352.63
2022-12-18T09:43:34.918Z,102333.69
2022-12-18T09:46:06.358Z,102332.97
2022-12-18T09:48:37.424Z,102328.19
2022-12-18T09:51:14.409Z,102319.00
2022-12-18T09:53:43.108Z,102321.97
2022-12-18T09:56:16.736Z,102321.66
2022-12-18T09:58:50.181Z,102326.03
2022-12-18T10:01:22.114Z,102310.50
2022-12-18T10:03:48.750Z,102314.63
2022-12-18T10:06:22.574Z,102318.88
2022-12-18T10:09:21.272Z,102307.88
2022-12-18T10:12:13.900Z,102310.31
2022-12-18T10:14:58.064Z,102300.78
2022-12-18T10:17:31.991Z,102309.00
2022-12-18T10:20:30.745Z,102309.88
2022-12-18T10:23:21.024Z,102300.63
2022-12-18T10:26:06.748Z,102287.25
2022-12-18T10:28:36.651Z,102283.28
2022-12-18T10:31:03.340Z,102296.03
2022-12-18T10:33:32.877Z,102304.97
2022-12-18T10:35:59.492Z,102296.91
2022-12-18T10:38:28.793Z,102285.59
2022-12-18T10:41:04.682Z,102281.69
2022-12-18T10:43:35.375Z,102278.44
2022-12-18T10:46:22.198Z,102275.59
2022-12-18T10:48:48.818Z,102267.69
2022-12-18T10:51:34.537Z,102264.88
2022-12-18T10:54:06.369Z,102254.03
2022-12-18T10:56:36.176Z,102251.41
2022-12-18T10:59:07.178Z,102247.00
2022-12-18T11:02:02.924Z,102253.13
2022-12-18T11:04:32.984Z,102247.56
2022-12-18T11:07:07.955Z,102240.78
2022-12-18T11:09:35.420Z,102242.97
2022-12-18T11:12:26.263Z,102237.19
2022-12-18T11:14:59.021Z,102234.63
2022-12-18T11:17:36.789Z,102226.88
2022-12-18T11:20:07.840Z,102218.66
2022-12-18T11:22:37.297Z,102215.81
2022-12-18T11:25:34.571Z,102218.41
2022-12-18T11:28:05.100Z,102203.47
2022-12-18T11:30:37.358Z,102210.69
2022-12-18T11:33:17.614Z,102206.50
2022-12-18T11:36:13.439Z,102204.22
2022-12-18T11:38:45.548Z,102208.72
2022-12-18T11:42:01.256Z,102218.84
2022-12-18T11:44:35.730Z,102214.16
2022-12-18T11:47:11.306Z,102203.47
2022-12-18T11:49:37.727Z,102202.72
2022-12-18T11:52:28.260Z,102193.91
2022-12-18T11:55:01.613Z,102200.72
2022-12-18T11:58:00.005Z,102193.91
2022-12-18T12:00:26.697Z,102186.38
2022-12-18T12:03:22.258Z,102174.56
2022-12-18T12:06:00.108Z,102170.28
2022-12-18T12:08:54.221Z,102169.06
2022-12-18T12:11:26.510Z,102162.50
2022-12-18T12:14:10.124Z,102163.75
2022-12-18T12:17:07.063Z,102151.09
2022-12-18T12:19:43.648Z,102145.41
2022-12-18T12:22:23.400Z,102156.91
2022-12-18T12:25:14.541Z,102149.69
2022-12-18T12:27:59.869Z,102152.78
2022-12-18T12:31:01.775Z,102148.84
2022-12-18T12:33:48.094Z,102129.66
2022-12-18T12:36:27.439Z,102132.50
2022-12-18T12:38:58.803Z,102137.81
2022-12-18T12:41:47.168Z,102125.31
2022-12-18T12:44:48.123Z,102114.16
2022-12-18T12:47:24.818Z,102111.03
2022-12-18T12:49:51.962Z,102113.84
2022-12-18T12:52:40.802Z,102103.31
2022-12-18T12:55:22.000Z,102092.91
2022-12-18T12:58:15.723Z,102088.44
2022-12-18T13:01:07.393Z,102091.28
2022-12-18T13:03:40.163Z,102093.56
2022-12-18T13:06:50.501Z,102086.19
2022-12-18T13:09:17.157Z,102095.94
2022-12-18T13:12:05.775Z,102098.69
2022-12-18T13:14:35.518Z,102093.19
2022-12-18T13:17:18.721Z,102086.19
2022-12-18T13:19:45.604Z,102082.78
2022-12-18T13:22:25.972Z,102082.53
2022-12-18T13:24:52.474Z,102090.84
2022-12-18T13:27:44.923Z,102078.38
2022-12-18T13:30:32.959Z,102071.84
2022-12-18T13:33:14.697Z,102074.00
2022-12-18T13:35:47.169Z,102073.16
2022-12-18T13:38:32.042Z,102057.41
2022-12-18T13:41:08.597Z,102064.31
2022-12-18T13:43:48.270Z,102060.00
2022-12-18T13:46:43.041Z,102058.16
2022-12-18T13:49:15.230Z,102055.03
2022-12-18T13:51:53.447Z,102058.38
2022-12-18T13:54:36.283Z,102054.03
2022-12-18T13:57:03.500Z,102058.34
2022-12-18T13:59:40.401Z,102052.28
2022-12-18T14:02:21.602Z,102047.72
2022-12-18T14:04:49.714Z,102036.91
2022-12-18T14:07:23.329Z,102038.00
2022-12-18T14:10:01.895Z,102040.44
2022-12-18T14:12:54.831Z,102035.34
2022-12-18T14:15:27.542Z,102034.25
2022-12-18T14:18:15.793Z,102032.47
2022-12-18T14:20:50.659Z,102013.22
2022-12-18T14:23:38.771Z,102010.38
2022-12-18T14:26:30.988Z,102015.03
2022-12-18T14:28:59.011Z,102017.88
2022-12-18T14:31:28.156Z,102009.28
2022-12-18T14:33:55.130Z,102001.41
2022-12-18T14:36:27.572Z,102002.66
2022-12-18T14:38:59.128Z,102000.88
2022-12-18T14:41:27.164Z,102001.41
2022-12-18T14:43:55.419Z,101999.09
2022-12-18T14:46:34.024Z,101997.69
2022-12-18T14:49:04.548Z,101996.81
2022-12-18T14:51:34.050Z,101988.84
2022-12-18T14:54:04.268Z,101986.34
2022-12-18T14:56:36.387Z,101989.00
2022-12-18T14:59:05.945Z,101984.69
2022-12-18T15:01:46.910Z,101982.75
2022-12-18T15:04:28.050Z,101975.97
2022-12-18T15:07:10.606Z,101975.91
2022-12-18T15:09:39.983Z,101987.34
2022-12-18T15:12:06.760Z,101975.66
2022-12-18T15:14:42.801Z,101976.91
2022-12-18T15:17:20.071Z,101981.09
2022-12-18T15:19:49.062Z,101971.44
2022-12-18T15:22:35.644Z,101974.00
2022-12-18T15:25:03.319Z,101969.47
2022-12-18T15:27:36.837Z,101976.78
2022-12-18T15:30:06.076Z,101971.47
2022-12-18T15:32:32.536Z,101969.59
2022-12-18T15:35:20.098Z,101963.59
2022-12-18T15:37:46.795Z,101961.53
2022-12-18T15:40:17.903Z,101966.94
2022-12-18T15:43:03.844Z,101985.53
2022-12-18T15:45:30.416Z,101971.22
2022-12-18T15:47:57.287Z,101979.63
2022-12-18T15:50:24.270Z,101979.63
2022-12-18T15:52:53.156Z,101973.53
2022-12-18T15:55:40.660Z,101968.69
2022-12-18T15:58:09.800Z,101969.69
2022-12-18T16:00:39.294Z,101971.59
2022-12-18T16:03:06.275Z,101968.03
2022-12-18T16:05:33.144Z,101959.94
2022-12-18T16:07:59.697Z,101961.94
2022-12-18T16:10:27.353Z,101946.13
2022-12-18T16:12:53.833Z,101939.84
2022-12-18T16:15:24.567Z,101944.34
2022-12-18T16:17:52.647Z,101930.34
2022-12-18T16:20:21.996Z,101941.81
2022-12-18T16:22:49.554Z,101929.34
2022-12-18T16:25:18.691Z,101926.44
2022-12-18T16:27:45.211Z,101917.50
2022-12-18T16:30:16.339Z,101911.44
2022-12-18T16:32:43.215Z,101906.94
2022-12-18T16:35:12.274Z,101904.56
2022-12-18T16:37:38.889Z,101908.31
2022-12-18T16:40:06.560Z,101916.28
2022-12-18T16:42:32.934Z,101896.47
2022-12-18T16:44:59.381Z,101897.44
2022-12-18T16:47:25.784Z,101901.91
2022-12-18T16:49:53.243Z,101900.28
2022-12-18T16:52:20.382Z,101875.50
2022-12-18T16:54:46.836Z,101889.69
2022-12-18T16:57:15.187Z,101882.66
2022-12-18T16:59:41.901Z,101880.94
2022-12-18T17:02:23.723Z,101874.75
2022-12-18T17:04:53.109Z,101882.34
2022-12-18T17:07:19.540Z,101874.72
2022-12-18T17:09:46.066Z,101872.09
2022-12-18T17:12:12.675Z,101872.97
2022-12-18T17:14:39.113Z,101875.72
2022-12-18T17:17:22.751Z,101876.41
2022-12-18T17:19:51.177Z,101884.56
2022-12-18T17:22:17.990Z,101876.53
2022-12-18T17:24:44.494Z,101892.00
2022-12-18T17:27:10.930Z,101884.38
2022-12-18T17:29:40.130Z,101890.47
2022-12-18T17:32:11.711Z,101889.81
2022-12-18T17:34:38.210Z,101890.56
2022-12-18T17:37:04.640Z,101883.50
2022-12-18T17:39:31.137Z,101873.88
2022-12-18T17:41:59.360Z,101879.06
2022-12-18T17:44:25.771Z,101889.97
2022-12-18T17:46:52.193Z,101879.88
2022-12-18T17:49:18.677Z,101892.34
2022-12-18T17:51:45.071Z,101891.47
2022-12-18T17:54:11.733Z,101886.25
2022-12-18T17:56:39.183Z,101887.16
2022-12-18T17:59:06.897Z,101880.69
2022-12-18T18:01:33.542Z,101890.56
2022-12-18T18:04:00.748Z,101882.47
2022-12-18T18:06:28.131Z,101878.16
2022-12-18T18:08:55.033Z,101895.00
2022-12-18T18:11:42.879Z,101889.34
2022-12-18T18:14:19.298Z,101888.78
2022-12-18T18:16:48.585Z,101884.13
2022-12-18T18:19:21.848Z,101877.03
2022-12-18T18:21:50.782Z,101887.66
2022-12-18T18:24:20.362Z,101892.09
2022-12-18T18:26:47.182Z,101884.25
2022-12-18T18:29:16.794Z,101880.47
2022-12-18T18:31:43.757Z,101874.50
2022-12-18T18:34:19.010Z,101877.03
2022-12-18T18:36:46.250Z,101880.56
2022-12-18T18:39:13.537Z,101877.50
2022-12-18T18:41:39.992Z,101874.25
2022-12-18T18:44:06.954Z,101872.53
2022-12-18T18:46:33.672Z,101867.97
2022-12-18T18:49:00.215Z,101862.78
2022-12-18T18:51:31.463Z,101869.75
2022-12-18T18:54:01.080Z,101864.34
2022-12-18T18:56:56.576Z,101859.13
2022-12-18T18:59:14.041Z,101864.09
2022-12-18T19:01:40.670Z,101867.97
2022-12-18T19:04:07.245Z,101851.97
2022-12-18T19:06:33.754Z,101850.72
2022-12-18T19:09:02.712Z,101853.28
2022-12-18T19:11:48.661Z,101854.34
2022-12-18T19:14:15.614Z,101854.47
2022-12-18T19:16:43.481Z,101855.28
2022-12-18T19:19:10.837Z,101853.16
2022-12-18T19:21:38.224Z,101851.41
2022-12-18T19:24:05.927Z,101845.28
2022-12-18T19:26:32.430Z,101849.72
2022-12-18T19:29:06.490Z,101853.06
2022-12-18T19:31:35.939Z,101850.63
2022-12-18T19:34:06.622Z,101846.94
2022-12-18T19:36:35.421Z,101852.28
2022-12-18T19:39:07.051Z,101853.03
2022-12-18T19:41:33.885Z,101856.66
2022-12-18T19:44:01.425Z,101863.41
2022-12-18T19:46:35.816Z,101860.84
2022-12-18T19:49:02.646Z,101864.50
2022-12-18T19:51:30.671Z,101860.03
2022-12-18T19:53:59.473Z,101861.56
2022-12-18T19:56:30.925Z,101859.97
2022-12-18T19:58:57.760Z,101853.53
2022-12-18T20:01:25.976Z,101855.25
2022-12-18T20:03:54.521Z,101851.88
2022-12-18T20:06:27.421Z,101857.13
2022-12-18T20:08:57.626Z,101849.38
2022-12-18T20:11:27.980Z,101853.03
2022-12-18T20:13:54.573Z,101850.28
2022-12-18T20:16:21.253Z,101852.06
2022-12-18T20:18:49.084Z,101852.41
2022-12-18T20:21:16.087Z,101854.88
2022-12-18T20:23:43.034Z,101858.66
2022-12-18T20:26:09.869Z,101853.28
2022-12-18T20:28:36.349Z,101864.84
2022-12-18T20:31:08.108Z,101861.44
2022-12-18T20:33:37.394Z,101867.34
2022-12-18T20:36:07.018Z,101863.19
2022-12-18T20:38:35.107Z,101869.28
2022-12-18T20:41:06.574Z,101854.88
2022-12-18T20:43:33.111Z,101852.41
2022-12-18T20:46:08.314Z,101849.75
2022-12-18T20:48:35.426Z,101857.88
2022-12-18T20:51:05.674Z,101852.41
2022-12-18T21:04:30.111Z,101834.91
2022-12-18T21:07:02.401Z,101826.88
2022-12-18T21:09:37.341Z,101817.25
2022-12-18T21:12:25.284Z,101819.56
2022-12-18T21:14:51.781Z,101818.56
2022-12-18T21:17:18.214Z,101807.31
2022-12-18T21:19:44.629Z,101800.06
2022-12-18T21:22:12.125Z,101799.22
2022-12-18T21:24:38.707Z,101792.97
2022-12-18T21:27:05.304Z,101787.69
2022-12-18T21:29:33.100Z,101774.47
2022-12-18T21:31:59.572Z,101771.81
2022-12-18T21:34:28.457Z,101773.28
2022-12-18T21:36:57.384Z,101767.00
2022-12-18T21:39:25.100Z,101757.06
2022-12-18T21:42:10.401Z,101764.22
2022-12-18T21:44:40.171Z,101768.66
2022-12-18T21:47:20.913Z,101765.31
2022-12-18T21:49:50.399Z,101765.22
2022-12-18T21:52:16.871Z,101761.53
2022-12-18T21:54:43.327Z,101766.59
2022-12-18T21:57:10.921Z,101767.84
2022-12-18T21:59:39.624Z,101776.38
2022-12-18T22:02:21.471Z,101763.00
2022-12-18T22:04:48.648Z,101762.09
2022-12-18T22:07:16.412Z,101759.50
2022-12-18T22:09:43.167Z,101751.38
2022-12-18T22:12:13.361Z,101722.34
2022-12-18T22:14:39.896Z,101728.44
2022-12-18T22:17:06.341Z,101725.72
2022-12-18T22:19:36.811Z,101725.34
2022-12-18T22:22:07.820Z,101718.19
2022-12-18T22:24:34.251Z,101725.34
2022-12-18T22:27:02.091Z,101714.91
2022-12-18T22:29:47.523Z,101721.13
2022-12-18T22:32:30.515Z,101701.69
2022-12-18T22:35:04.929Z,101681.22
2022-12-18T22:37:33.802Z,101676.72
2022-12-18T22:40:02.842Z,101675.00
2022-12-18T22:42:30.315Z,101666.25
2022-12-18T22:44:56.926Z,101657.13
2022-12-18T22:47:26.636Z,101656.97
2022-12-18T22:49:56.114Z,101657.97
2022-12-18T22:52:23.404Z,101651.81
2022-12-18T22:54:51.406Z,101662.28
2022-12-18T22:57:20.120Z,101638.31
2022-12-18T22:59:46.528Z,101658.59
2022-12-18T23:02:12.990Z,101629.56
2022-12-18T23:04:39.793Z,101635.53
2022-12-18T23:07:06.412Z,101631.22
2022-12-18T23:09:33.347Z,101612.56
2022-12-18T23:12:00.566Z,101616.94
2022-12-18T23:14:28.019Z,101603.72
2022-12-18T23:16:54.444Z,101595.75
2022-12-18T23:19:21.402Z,101594.97
2022-12-18T23:21:50.169Z,101584.44
2022-12-18T23:24:16.653Z,101591.41
2022-12-18T23:26:43.167Z,101593.09
2022-12-18T23:29:09.754Z,101594.84
2022-12-18T23:31:39.183Z,101603.56
2022-12-18T23:34:07.929Z,101588.56
2022-12-18T23:36:43.551Z,101588.41
2022-12-18T23:39:22.369Z,101592.03
2022-12-18T23:42:00.551Z,101593.66
2022-12-18T23:44:27.862Z,101580.44
2022-12-18T23:46:55.132Z,101576.78
2022-12-18T23:49:21.820Z,101556.56
2022-12-18T23:51:48.437Z,101537.81
2022-12-18T23:54:14.977Z,101544.16
2022-12-18T23:56:41.572Z,101548.38
2022-12-18T23:59:07.982Z,101573.84
